Time;durP1;ratioP1;P1;durP2;ratioP2;P2;SDS_P1;SDS_P2;PMS_P1;PMS_P2;Temp;Humidity;BMP_temperature;BMP_pressure;BME280_temperature;BME280_humidity;BME280_pressure;Samples;Min_cycle;Max_cycle;Signal;HPM_P1;HPM_P2
2021/08/13 00:02:07;;;;;;;18.20;14.70;;;;;;;;;;5019761;28;20025;-77
2021/08/13 00:04:33;;;;;;;19.30;16.15;;;;;;;;;;5023552;28;20065;-77
2021/08/13 00:06:58;;;;;;;20.52;15.75;;;;;;;;;;4995505;28;20071;-77
2021/08/13 00:09:24;;;;;;;18.85;16.08;;;;;;;;;;5020279;28;20044;-77
2021/08/13 00:11:49;;;;;;;19.00;16.33;;;;;;;;;;5011981;28;20038;-77
2021/08/13 00:14:16;;;;;;;19.48;15.45;;;;;;;;;;5025906;28;20060;-77
2021/08/13 00:16:41;;;;;;;17.58;15.00;;;;;;;;;;5023794;28;20683;-77
2021/08/13 00:19:07;;;;;;;17.15;15.18;;;;;;;;;;5009236;28;20033;-77
2021/08/13 00:21:33;;;;;;;17.20;14.90;;;;;;;;;;5020869;28;20037;-77
2021/08/13 00:23:59;;;;;;;17.77;14.38;;;;;;;;;;5022422;28;20041;-77
2021/08/13 00:26:24;;;;;;;17.15;14.95;;;;;;;;;;5027298;28;20033;-77
2021/08/13 00:28:50;;;;;;;19.60;14.68;;;;;;;;;;5024912;28;20030;-77
2021/08/13 00:31:15;;;;;;;16.48;14.45;;;;;;;;;;5025132;28;20033;-77
2021/08/13 00:33:41;;;;;;;17.27;14.15;;;;;;;;;;5003614;28;20041;-77
2021/08/13 00:36:06;;;;;;;19.20;15.45;;;;;;;;;;5022285;28;20064;-77
2021/08/13 00:38:32;;;;;;;21.13;15.60;;;;;;;;;;5024571;28;20077;-77
2021/08/13 00:40:57;;;;;;;17.38;15.15;;;;;;;;;;5034429;28;20040;-77
2021/08/13 00:43:22;;;;;;;20.02;15.38;;;;;;;;;;5005892;28;20580;-77
2021/08/13 00:45:48;;;;;;;16.73;14.80;;;;;;;;;;5022913;28;20029;-77
2021/08/13 00:48:13;;;;;;;16.95;14.57;;;;;;;;;;5019743;28;20360;-77
2021/08/13 00:50:39;;;;;;;18.67;15.13;;;;;;;;;;5023411;28;20030;-77
2021/08/13 00:53:07;;;;;;;21.05;15.32;;;;;;;;;;5025644;28;20151;-77
2021/08/13 00:55:33;;;;;;;22.23;16.70;;;;;;;;;;5030092;28;20041;-77
2021/08/13 00:57:58;;;;;;;23.10;19.83;;;;;;;;;;5026084;28;20033;-77
2021/08/13 01:00:24;;;;;;;21.23;17.27;;;;;;;;;;5030331;28;20521;-77
2021/08/13 01:02:50;;;;;;;17.35;15.35;;;;;;;;;;5023668;28;20275;-77
2021/08/13 01:05:16;;;;;;;18.60;14.45;;;;;;;;;;5026414;28;20025;-77
2021/08/13 01:07:42;;;;;;;17.73;13.55;;;;;;;;;;5024826;28;20504;-77
2021/08/13 01:10:08;;;;;;;14.90;13.30;;;;;;;;;;5008604;28;20400;-77
2021/08/13 01:13:06;;;;;;;14.75;13.10;;;;;;;;;;5023301;28;20048;-77
2021/08/13 01:15:39;;;;;;;14.38;12.82;;;;;;;;;;5020023;28;20050;-77
2021/08/13 01:18:10;;;;;;;;;;;;;;;;;;5026922;28;20026;-77
2021/08/13 01:21:03;;;;;;;15.63;12.77;;;;;;;;;;5020220;28;19925;-77
2021/08/13 01:23:40;;;;;;;16.35;14.02;;;;;;;;;;5029964;28;20055;-77
2021/08/13 01:26:08;;;;;;;15.82;13.85;;;;;;;;;;5019714;28;20037;-77
2021/08/13 01:28:33;;;;;;;15.57;13.80;;;;;;;;;;5022006;28;20036;-77
2021/08/13 01:31:03;;;;;;;14.52;12.95;;;;;;;;;;5020397;28;20037;-77
2021/08/13 01:33:30;;;;;;;16.00;13.43;;;;;;;;;;5028698;28;20090;-77
2021/08/13 01:35:56;;;;;;;15.38;13.57;;;;;;;;;;5023843;28;20132;-77
2021/08/13 01:38:27;;;;;;;14.50;13.00;;;;;;;;;;5020957;28;20044;-77
2021/08/13 01:40:56;;;;;;;14.77;13.20;;;;;;;;;;5021096;28;20128;-77
2021/08/13 01:43:24;;;;;;;13.80;12.35;;;;;;;;;;5023555;28;20051;-77
2021/08/13 01:45:50;;;;;;;17.63;13.88;;;;;;;;;;5020124;28;20071;-77
2021/08/13 01:48:18;;;;;;;15.38;13.38;;;;;;;;;;5021851;28;20040;-77
2021/08/13 01:50:44;;;;;;;14.80;13.30;;;;;;;;;;5022689;28;20056;-77
2021/08/13 01:53:10;;;;;;;17.60;14.80;;;;;;;;;;5029017;28;20040;-77
2021/08/13 01:55:36;;;;;;;14.75;13.23;;;;;;;;;;5002752;28;20034;-77
2021/08/13 01:58:02;;;;;;;16.50;13.95;;;;;;;;;;5029564;28;20140;-77
2021/08/13 02:00:28;;;;;;;17.65;14.25;;;;;;;;;;5014949;28;20096;-77
2021/08/13 02:02:55;;;;;;;16.05;14.35;;;;;;;;;;5003294;28;20033;-77
2021/08/13 02:05:33;;;;;;;18.45;15.20;;;;;;;;;;5025120;28;20049;-77
2021/08/13 02:08:01;;;;;;;15.63;13.85;;;;;;;;;;5026600;28;20063;-77
2021/08/13 02:10:27;;;;;;;15.45;13.35;;;;;;;;;;5024302;28;20403;-77
2021/08/13 02:12:52;;;;;;;17.48;14.63;;;;;;;;;;5023438;28;20404;-77
2021/08/13 02:15:18;;;;;;;16.15;14.15;;;;;;;;;;5026948;28;20396;-77
2021/08/13 02:17:53;;;;;;;15.57;13.68;;;;;;;;;;5029508;28;20033;-77
2021/08/13 02:20:21;;;;;;;16.25;14.40;;;;;;;;;;5023830;28;20030;-77
2021/08/13 02:22:46;;;;;;;16.67;13.90;;;;;;;;;;5020577;28;20460;-77
2021/08/13 02:25:12;;;;;;;16.38;14.27;;;;;;;;;;5034802;28;20029;-77
2021/08/13 02:27:39;;;;;;;17.88;14.98;;;;;;;;;;5019985;28;20049;-77
2021/08/13 02:30:07;;;;;;;17.55;14.73;;;;;;;;;;5024555;28;20075;-77
2021/08/13 02:32:32;;;;;;;17.25;14.60;;;;;;;;;;5019345;28;20125;-77
2021/08/13 02:34:58;;;;;;;17.15;14.10;;;;;;;;;;5023902;28;20168;-77
2021/08/13 02:37:30;;;;;;;20.83;14.13;;;;;;;;;;5020848;28;20495;-77
2021/08/13 02:40:02;;;;;;;18.52;14.85;;;;;;;;;;5026156;28;20029;-77
2021/08/13 02:42:35;;;;;;;19.17;14.45;;;;;;;;;;5019551;28;20037;-77
2021/08/13 02:45:02;;;;;;;16.23;13.57;;;;;;;;;;5025857;28;20033;-77
2021/08/13 02:47:29;;;;;;;18.52;14.77;;;;;;;;;;5008546;28;20034;-77
2021/08/13 02:50:00;;;;;;;17.17;15.27;;;;;;;;;;5012900;28;20072;-77
2021/08/13 02:52:30;;;;;;;15.80;14.00;;;;;;;;;;5031271;28;20036;-77
2021/08/13 02:55:04;;;;;;;18.88;14.88;;;;;;;;;;5030234;28;20045;-77
2021/08/13 02:57:33;;;;;;;17.90;14.52;;;;;;;;;;5029707;28;20029;-77
2021/08/13 03:00:02;;;;;;;19.17;15.07;;;;;;;;;;5027050;28;20030;-77
2021/08/13 03:02:30;;;;;;;18.40;14.73;;;;;;;;;;5020953;28;20032;-77
2021/08/13 03:04:56;;;;;;;17.77;15.18;;;;;;;;;;5011621;28;20084;-77
2021/08/13 03:07:24;;;;;;;18.70;14.30;;;;;;;;;;5024815;28;20064;-77
2021/08/13 03:09:51;;;;;;;18.50;14.07;;;;;;;;;;5009873;28;20455;-77
2021/08/13 03:12:17;;;;;;;20.00;14.05;;;;;;;;;;4993121;28;20103;-77
2021/08/13 03:14:42;;;;;;;15.73;13.98;;;;;;;;;;5026410;28;20029;-77
2021/08/13 03:17:09;;;;;;;17.73;14.35;;;;;;;;;;5009434;28;20041;-77
2021/08/13 03:19:35;;;;;;;17.90;14.27;;;;;;;;;;5032951;28;20511;-77
2021/08/13 03:22:01;;;;;;;16.92;14.18;;;;;;;;;;5026268;28;20061;-77
2021/08/13 03:24:26;;;;;;;17.33;14.02;;;;;;;;;;5008344;28;20037;-77
2021/08/13 03:26:53;;;;;;;15.73;13.63;;;;;;;;;;5017928;28;20564;-77
2021/08/13 03:29:19;;;;;;;15.95;13.93;;;;;;;;;;5008438;28;20030;-77
2021/08/13 03:31:45;;;;;;;19.20;14.55;;;;;;;;;;5026195;28;20040;-77
2021/08/13 03:34:14;;;;;;;17.23;12.75;;;;;;;;;;5026096;28;20042;-77
2021/08/13 03:36:39;;;;;;;14.98;12.48;;;;;;;;;;5025388;28;20396;-77
2021/08/13 03:39:06;;;;;;;14.90;12.10;;;;;;;;;;5011153;28;20038;-77
2021/08/13 03:41:32;;;;;;;14.25;12.13;;;;;;;;;;5023945;28;20095;-77
2021/08/13 03:43:57;;;;;;;13.63;11.43;;;;;;;;;;5027712;28;20029;-77
2021/08/13 03:46:23;;;;;;;14.13;11.35;;;;;;;;;;5026437;28;20546;-77
2021/08/13 03:48:48;;;;;;;15.05;12.23;;;;;;;;;;5028284;28;20029;-77
2021/08/13 03:51:14;;;;;;;13.35;11.73;;;;;;;;;;5027449;28;20040;-77
2021/08/13 03:53:39;;;;;;;14.35;11.93;;;;;;;;;;5024386;28;20084;-77
2021/08/13 03:56:05;;;;;;;15.18;11.02;;;;;;;;;;4993556;28;20038;-77
2021/08/13 03:58:30;;;;;;;12.85;10.45;;;;;;;;;;5010307;28;20022;-77
2021/08/13 04:00:56;;;;;;;14.15;12.60;;;;;;;;;;5025099;28;20029;-77
2021/08/13 04:03:21;;;;;;;14.68;12.10;;;;;;;;;;5021061;28;20083;-77
2021/08/13 04:05:46;;;;;;;14.40;11.75;;;;;;;;;;5025977;28;20029;-77
2021/08/13 04:08:12;;;;;;;12.75;11.43;;;;;;;;;;5025885;28;20044;-77
2021/08/13 04:10:38;;;;;;;13.75;11.05;;;;;;;;;;5018378;28;20096;-77
2021/08/13 04:13:04;;;;;;;11.95;10.63;;;;;;;;;;5026885;28;20073;-77
2021/08/13 04:15:29;;;;;;;11.40;10.10;;;;;;;;;;5026243;28;20116;-77
2021/08/13 04:17:55;;;;;;;13.93;9.30;;;;;;;;;;5029526;28;20401;-77
2021/08/13 04:20:21;;;;;;;11.40;9.98;;;;;;;;;;5025682;28;20037;-77
2021/08/13 04:22:47;;;;;;;11.13;9.90;;;;;;;;;;5026636;28;20033;-77
2021/08/13 04:25:12;;;;;;;11.05;9.93;;;;;;;;;;5027926;28;20401;-77
2021/08/13 04:27:38;;;;;;;12.75;10.35;;;;;;;;;;5026832;28;20592;-77
2021/08/13 04:30:04;;;;;;;12.48;10.55;;;;;;;;;;5025543;28;20512;-77
2021/08/13 04:32:29;;;;;;;14.20;10.82;;;;;;;;;;5024924;28;20078;-77
2021/08/13 04:34:55;;;;;;;13.90;10.27;;;;;;;;;;5023712;28;20489;-77
2021/08/13 04:37:20;;;;;;;14.25;11.50;;;;;;;;;;5003595;28;20040;-77
2021/08/13 04:39:45;;;;;;;16.88;11.77;;;;;;;;;;5012524;28;20029;-77
2021/08/13 04:42:11;;;;;;;13.93;10.95;;;;;;;;;;5023452;28;20091;-77
2021/08/13 04:44:36;;;;;;;15.07;12.18;;;;;;;;;;4991536;28;20041;-77
2021/08/13 04:47:02;;;;;;;15.13;11.52;;;;;;;;;;5026039;28;20388;-77
2021/08/13 04:49:28;;;;;;;13.20;11.52;;;;;;;;;;5029776;28;20029;-77
2021/08/13 04:51:53;;;;;;;15.65;11.68;;;;;;;;;;5028779;28;20045;-77
2021/08/13 04:54:19;;;;;;;15.85;12.35;;;;;;;;;;5024959;28;20075;-77
2021/08/13 04:56:44;;;;;;;14.07;11.75;;;;;;;;;;5024590;28;20136;-77
2021/08/13 04:59:10;;;;;;;14.23;12.10;;;;;;;;;;4997903;28;20041;-77
2021/08/13 05:01:35;;;;;;;16.70;12.88;;;;;;;;;;5012063;28;20045;-76
2021/08/13 05:04:01;;;;;;;18.13;13.43;;;;;;;;;;5026354;28;20033;-77
2021/08/13 05:06:26;;;;;;;15.02;11.95;;;;;;;;;;5025895;28;20100;-77
2021/08/13 05:08:52;;;;;;;17.95;14.27;;;;;;;;;;5023798;28;20040;-77
2021/08/13 05:11:17;;;;;;;18.23;13.60;;;;;;;;;;5025481;28;20053;-77
2021/08/13 05:13:43;;;;;;;18.60;13.50;;;;;;;;;;5019772;28;20073;-77
2021/08/13 05:16:08;;;;;;;20.15;13.65;;;;;;;;;;5024695;28;20037;-77
2021/08/13 05:18:34;;;;;;;19.77;15.55;;;;;;;;;;5020089;28;20366;-77
2021/08/13 05:21:00;;;;;;;19.67;14.57;;;;;;;;;;5029323;28;20025;-77
2021/08/13 05:23:26;;;;;;;20.92;14.85;;;;;;;;;;5022559;28;20496;-77
2021/08/13 05:25:51;;;;;;;18.45;13.90;;;;;;;;;;5022596;28;20037;-77
2021/08/13 05:28:16;;;;;;;20.75;14.32;;;;;;;;;;5002332;28;20466;-77
2021/08/13 05:30:42;;;;;;;20.63;13.65;;;;;;;;;;5017435;28;20079;-77
2021/08/13 05:33:07;;;;;;;21.67;14.30;;;;;;;;;;5023907;28;20061;-77
2021/08/13 05:35:36;;;;;;;19.65;12.93;;;;;;;;;;5022049;28;20120;-77
2021/08/13 05:38:02;;;;;;;17.38;13.05;;;;;;;;;;5019167;28;20029;-77
2021/08/13 05:40:28;;;;;;;15.80;11.85;;;;;;;;;;5004238;28;20444;-77
2021/08/13 05:42:55;;;;;;;17.60;12.40;;;;;;;;;;5021193;28;20084;-77
2021/08/13 05:45:21;;;;;;;16.45;11.65;;;;;;;;;;5018969;28;20124;-77
2021/08/13 05:47:46;;;;;;;16.25;11.35;;;;;;;;;;5042869;28;20121;-77
2021/08/13 05:50:15;;;;;;;18.80;11.77;;;;;;;;;;5029075;28;20030;-77
2021/08/13 05:52:40;;;;;;;15.43;11.25;;;;;;;;;;5018484;28;20457;-77
2021/08/13 05:55:07;;;;;;;18.95;11.43;;;;;;;;;;5024617;28;20122;-77
2021/08/13 05:57:32;;;;;;;17.35;11.43;;;;;;;;;;5022666;28;20508;-77
2021/08/13 05:59:57;;;;;;;15.30;10.77;;;;;;;;;;5025241;28;20030;-77
2021/08/13 06:02:23;;;;;;;16.17;10.57;;;;;;;;;;5025492;28;20068;-77
2021/08/13 06:04:48;;;;;;;14.82;10.27;;;;;;;;;;5006607;28;20116;-77
2021/08/13 06:07:14;;;;;;;16.45;10.55;;;;;;;;;;5027077;28;20028;-77
2021/08/13 06:09:39;;;;;;;15.38;10.13;;;;;;;;;;5025107;28;20038;-77
2021/08/13 06:12:05;;;;;;;16.17;10.23;;;;;;;;;;5023890;28;20058;-77
2021/08/13 06:14:32;;;;;;;14.20;9.63;;;;;;;;;;5020604;28;20120;-77
2021/08/13 06:16:59;;;;;;;14.13;10.43;;;;;;;;;;5029607;28;20037;-77
2021/08/13 06:19:25;;;;;;;12.75;9.20;;;;;;;;;;5019240;28;20328;-77
2021/08/13 06:21:50;;;;;;;16.42;10.30;;;;;;;;;;5022820;28;20034;-77
2021/08/13 06:24:16;;;;;;;13.30;9.02;;;;;;;;;;5018008;28;20042;-77
2021/08/13 06:26:41;;;;;;;14.43;9.05;;;;;;;;;;5023351;28;20037;-77
2021/08/13 06:29:07;;;;;;;11.43;8.80;;;;;;;;;;5024249;28;20037;-77
2021/08/13 06:31:32;;;;;;;12.10;8.82;;;;;;;;;;5025840;28;20049;-77
2021/08/13 06:33:58;;;;;;;12.35;9.18;;;;;;;;;;5024348;28;20075;-77
2021/08/13 06:36:23;;;;;;;12.77;9.00;;;;;;;;;;5025572;28;20033;-77
2021/08/13 06:38:49;;;;;;;15.00;7.93;;;;;;;;;;5027945;28;20072;-77
2021/08/13 06:41:14;;;;;;;11.35;8.50;;;;;;;;;;5044987;28;20036;-77
2021/08/13 06:43:39;;;;;;;12.93;8.43;;;;;;;;;;5029433;28;20467;-77
2021/08/13 06:46:05;;;;;;;14.63;8.32;;;;;;;;;;5025204;28;20037;-78
2021/08/13 06:48:30;;;;;;;12.30;8.02;;;;;;;;;;5028680;28;20396;-77
2021/08/13 06:50:56;;;;;;;11.40;7.63;;;;;;;;;;5024336;28;20037;-78
2021/08/13 06:53:21;;;;;;;11.52;7.13;;;;;;;;;;5025488;28;20039;-77
2021/08/13 06:55:47;;;;;;;13.73;8.05;;;;;;;;;;5031817;28;20460;-77
2021/08/13 06:58:12;;;;;;;11.70;7.95;;;;;;;;;;5007851;28;21675;-77
2021/08/13 07:00:37;;;;;;;12.05;7.65;;;;;;;;;;5024797;28;20045;-77
2021/08/13 07:03:04;;;;;;;12.23;8.40;;;;;;;;;;5013536;28;20547;-78
2021/08/13 07:05:29;;;;;;;11.57;7.50;;;;;;;;;;5033283;28;20043;-78
2021/08/13 07:07:54;;;;;;;11.93;7.45;;;;;;;;;;5029628;28;20033;-78
2021/08/13 07:10:20;;;;;;;11.48;6.90;;;;;;;;;;5015673;28;20402;-78
2021/08/13 07:12:45;;;;;;;14.02;7.72;;;;;;;;;;5006187;28;20120;-77
2021/08/13 07:15:11;;;;;;;12.55;6.95;;;;;;;;;;5034851;28;20032;-77
2021/08/13 07:17:37;;;;;;;11.50;6.95;;;;;;;;;;5032355;28;20041;-78
2021/08/13 07:20:04;;;;;;;11.20;6.72;;;;;;;;;;5030764;28;20068;-77
2021/08/13 07:22:32;;;;;;;11.13;6.65;;;;;;;;;;5030293;28;20507;-77
2021/08/13 07:24:57;;;;;;;12.02;6.50;;;;;;;;;;5029430;28;20513;-78
2021/08/13 07:27:23;;;;;;;10.88;6.47;;;;;;;;;;5032889;28;20112;-78
2021/08/13 07:29:48;;;;;;;11.98;6.30;;;;;;;;;;5014782;28;20036;-78
2021/08/13 07:32:14;;;;;;;10.82;6.60;;;;;;;;;;5021755;28;20036;-77
2021/08/13 07:34:39;;;;;;;10.63;6.32;;;;;;;;;;5007007;28;20060;-78
2021/08/13 07:37:04;;;;;;;9.23;6.30;;;;;;;;;;5009791;28;20512;-78
2021/08/13 07:39:30;;;;;;;9.75;6.03;;;;;;;;;;5026200;28;20350;-77
2021/08/13 07:41:55;;;;;;;10.32;6.47;;;;;;;;;;5028521;28;20397;-78
2021/08/13 07:44:21;;;;;;;9.98;6.38;;;;;;;;;;5013688;28;20033;-78
2021/08/13 07:46:46;;;;;;;10.40;6.95;;;;;;;;;;5035652;28;20025;-77
2021/08/13 07:49:12;;;;;;;9.90;6.25;;;;;;;;;;5028758;28;20067;-77
2021/08/13 07:51:37;;;;;;;11.45;6.43;;;;;;;;;;5004002;28;20041;-78
2021/08/13 07:54:02;;;;;;;10.00;6.60;;;;;;;;;;5022235;28;20096;-78
2021/08/13 07:56:28;;;;;;;9.35;6.38;;;;;;;;;;5025345;28;20091;-78
2021/08/13 07:58:53;;;;;;;10.18;6.07;;;;;;;;;;5013505;28;20187;-77
2021/08/13 08:01:19;;;;;;;8.68;6.10;;;;;;;;;;5028174;28;20033;-77
2021/08/13 08:03:44;;;;;;;10.68;6.47;;;;;;;;;;5014837;28;20029;-78
2021/08/13 08:06:09;;;;;;;10.70;7.20;;;;;;;;;;5023490;28;20540;-77
2021/08/13 08:08:35;;;;;;;11.38;6.85;;;;;;;;;;5026053;28;20038;-78
2021/08/13 08:11:00;;;;;;;11.85;7.05;;;;;;;;;;5027689;28;20069;-78
2021/08/13 08:13:26;;;;;;;12.43;7.00;;;;;;;;;;5011214;28;20120;-78
2021/08/13 08:15:51;;;;;;;22.48;6.68;;;;;;;;;;5008497;28;20558;-77
2021/08/13 08:18:20;;;;;;;11.52;7.38;;;;;;;;;;5012427;28;20581;-77
2021/08/13 08:20:45;;;;;;;10.15;6.55;;;;;;;;;;5030430;28;20037;-77
2021/08/13 08:23:11;;;;;;;11.52;7.18;;;;;;;;;;5031917;28;20071;-77
2021/08/13 08:25:37;;;;;;;11.88;6.72;;;;;;;;;;5029867;28;20047;-77
2021/08/13 08:28:03;;;;;;;12.05;7.55;;;;;;;;;;5033433;28;20057;-77
2021/08/13 08:30:29;;;;;;;14.20;7.25;;;;;;;;;;5033024;28;20064;-78
2021/08/13 08:32:55;;;;;;;12.40;7.18;;;;;;;;;;5032585;28;20033;-78
2021/08/13 08:35:20;;;;;;;15.50;7.05;;;;;;;;;;5028171;28;20065;-78
2021/08/13 08:37:51;;;;;;;12.75;6.47;;;;;;;;;;5028619;28;20088;-78
2021/08/13 08:40:25;;;;;;;9.73;6.57;;;;;;;;;;5030391;28;20053;-78
2021/08/13 08:42:52;;;;;;;10.23;6.10;;;;;;;;;;5032824;28;20465;-78
2021/08/13 08:45:18;;;;;;;10.98;7.25;;;;;;;;;;5027999;28;20031;-77
2021/08/13 08:47:44;;;;;;;11.27;6.70;;;;;;;;;;5018326;28;20066;-77
2021/08/13 08:50:11;;;;;;;10.07;6.65;;;;;;;;;;5028105;28;20034;-78
2021/08/13 08:52:39;;;;;;;12.93;7.05;;;;;;;;;;5032003;28;20042;-77
2021/08/13 08:55:07;;;;;;;12.73;6.80;;;;;;;;;;5014130;28;20405;-78
2021/08/13 08:57:34;;;;;;;12.75;6.90;;;;;;;;;;5032756;28;20535;-77
2021/08/13 09:00:00;;;;;;;11.73;6.50;;;;;;;;;;5031383;28;20033;-77
2021/08/13 09:02:25;;;;;;;11.30;6.53;;;;;;;;;;5053515;28;20126;-78
2021/08/13 09:04:51;;;;;;;11.68;6.75;;;;;;;;;;5034435;28;20116;-78
2021/08/13 09:07:16;;;;;;;11.13;6.88;;;;;;;;;;5014046;28;20208;-78
2021/08/13 09:09:42;;;;;;;10.70;6.75;;;;;;;;;;5029873;28;20087;-78
2021/08/13 09:12:07;;;;;;;10.23;6.05;;;;;;;;;;5030374;28;20091;-78
2021/08/13 09:14:40;;;;;;;10.95;6.03;;;;;;;;;;5030263;28;20112;-78
2021/08/13 09:17:05;;;;;;;9.98;6.10;;;;;;;;;;5027972;28;20044;-78
2021/08/13 09:19:42;;;;;;;8.82;5.82;;;;;;;;;;5031685;28;20042;-78
2021/08/13 09:22:12;;;;;;;12.13;6.80;;;;;;;;;;5032205;28;20493;-78
2021/08/13 09:24:43;;;;;;;9.80;6.18;;;;;;;;;;5034903;28;20584;-78
2021/08/13 09:27:24;;;;;;;10.23;5.72;;;;;;;;;;5026831;28;20384;-78
2021/08/13 09:30:17;;;;;;;9.38;5.60;;;;;;;;;;5029240;28;20042;-78
2021/08/13 09:33:05;;;;;;;10.40;5.97;;;;;;;;;;5043773;28;20489;-78
2021/08/13 09:35:33;;;;;;;10.95;5.45;;;;;;;;;;5024072;28;20034;-78
2021/08/13 09:38:00;;;;;;;11.15;5.70;;;;;;;;;;5028052;28;20033;-78
2021/08/13 09:40:26;;;;;;;8.38;5.25;;;;;;;;;;5029754;28;20385;-78
2021/08/13 09:43:01;;;;;;;11.00;5.18;;;;;;;;;;5027748;28;20033;-78
2021/08/13 09:45:29;;;;;;;8.50;5.10;;;;;;;;;;5008314;28;20461;-78
2021/08/13 09:47:54;;;;;;;9.68;5.28;;;;;;;;;;5017681;28;20037;-78
2021/08/13 09:50:34;;;;;;;7.68;4.80;;;;;;;;;;5021699;28;20029;-78
2021/08/13 09:53:14;;;;;;;9.85;4.55;;;;;;;;;;5039347;28;20873;-78
2021/08/13 09:55:41;;;;;;;10.88;4.75;;;;;;;;;;5029634;28;20574;-78
2021/08/13 09:58:08;;;;;;;8.45;4.50;;;;;;;;;;5023310;28;20036;-78
2021/08/13 10:00:54;;;;;;;8.07;4.90;;;;;;;;;;5018463;28;20034;-78
2021/08/13 10:03:19;;;;;;;9.63;4.88;;;;;;;;;;5027331;28;20392;-78
2021/08/13 10:06:01;;;;;;;10.75;4.90;;;;;;;;;;5028490;28;20037;-78
2021/08/13 10:08:40;;;;;;;11.82;4.93;;;;;;;;;;5041461;28;20034;-79
2021/08/13 10:11:13;;;;;;;10.35;4.90;;;;;;;;;;5025409;28;20056;-78
2021/08/13 10:13:42;;;;;;;9.13;4.35;;;;;;;;;;5027416;28;20037;-78
2021/08/13 10:16:08;;;;;;;8.50;4.80;;;;;;;;;;5010373;28;20733;-78
2021/08/13 10:18:36;;;;;;;9.20;5.00;;;;;;;;;;5010595;28;20048;-78
2021/08/13 10:21:01;;;;;;;7.70;4.43;;;;;;;;;;5019373;28;20026;-78
2021/08/13 10:23:28;;;;;;;7.70;5.03;;;;;;;;;;5030512;28;20684;-78
2021/08/13 10:25:56;;;;;;;8.43;4.40;;;;;;;;;;5031398;28;20034;-78
2021/08/13 10:28:21;;;;;;;11.20;4.50;;;;;;;;;;5023667;28;20046;-78
2021/08/13 10:30:47;;;;;;;9.15;4.30;;;;;;;;;;5024035;28;20029;-78
2021/08/13 10:33:14;;;;;;;8.40;4.47;;;;;;;;;;5023982;28;20432;-78
2021/08/13 10:35:43;;;;;;;10.32;4.97;;;;;;;;;;5028695;28;20775;-79
2021/08/13 10:38:09;;;;;;;11.38;5.68;;;;;;;;;;5022751;28;20057;-78
2021/08/13 10:40:37;;;;;;;9.45;5.50;;;;;;;;;;5036959;28;20132;-78
2021/08/13 10:43:03;;;;;;;7.97;5.03;;;;;;;;;;5007609;28;20576;-79
2021/08/13 10:45:34;;;;;;;11.05;5.63;;;;;;;;;;5024512;28;20044;-79
2021/08/13 10:48:09;;;;;;;13.63;6.55;;;;;;;;;;5019656;28;20540;-78
2021/08/13 10:50:35;;;;;;;10.20;5.68;;;;;;;;;;5025458;28;20091;-79
2021/08/13 10:53:00;;;;;;;12.27;6.40;;;;;;;;;;5029382;28;20033;-78
2021/08/13 10:55:53;;;;;;;10.68;5.57;;;;;;;;;;5013107;28;20532;-79
2021/08/13 10:58:40;;;;;;;11.73;5.40;;;;;;;;;;5027905;28;20084;-79
2021/08/13 11:01:13;;;;;;;9.30;4.95;;;;;;;;;;5030722;28;20045;-78
2021/08/13 11:03:43;;;;;;;9.70;5.20;;;;;;;;;;5028381;28;20037;-78
2021/08/13 11:06:09;;;;;;;8.93;4.70;;;;;;;;;;5024281;28;20056;-78
2021/08/13 11:08:40;;;;;;;10.50;5.00;;;;;;;;;;5037716;28;20037;-79
2021/08/13 11:11:07;;;;;;;8.93;5.40;;;;;;;;;;5042864;28;20063;-78
2021/08/13 11:13:38;;;;;;;9.27;4.88;;;;;;;;;;5037010;28;20125;-78
2021/08/13 11:16:30;;;;;;;7.30;4.05;;;;;;;;;;5032527;28;20033;-78
2021/08/13 11:19:00;;;;;;;8.47;4.30;;;;;;;;;;5028445;28;20639;-78
2021/08/13 11:21:40;;;;;;;7.93;4.00;;;;;;;;;;5026157;28;20038;-78
2021/08/13 11:24:10;;;;;;;6.63;3.90;;;;;;;;;;5031907;28;20044;-78
2021/08/13 11:26:47;;;;;;;9.35;4.10;;;;;;;;;;5024911;28;20033;-78
2021/08/13 11:29:34;;;;;;;6.80;3.10;;;;;;;;;;5028312;28;20029;-78
2021/08/13 11:32:14;;;;;;;7.68;2.83;;;;;;;;;;5028227;28;20040;-78
2021/08/13 11:35:03;;;;;;;8.45;3.20;;;;;;;;;;5022148;28;20079;-78
2021/08/13 11:37:38;;;;;;;5.60;2.58;;;;;;;;;;5033889;28;20389;-78
2021/08/13 11:40:29;;;;;;;6.38;2.20;;;;;;;;;;5024416;28;20055;-78
2021/08/13 11:42:57;;;;;;;8.80;2.42;;;;;;;;;;5028307;28;20085;-78
2021/08/13 11:45:46;;;;;;;6.50;2.78;;;;;;;;;;5032866;28;20021;-78
2021/08/13 11:48:13;;;;;;;7.85;2.80;;;;;;;;;;5029863;28;20037;-79
2021/08/13 11:50:39;;;;;;;5.38;2.38;;;;;;;;;;5035914;28;20029;-79
2021/08/13 11:53:04;;;;;;;7.60;2.55;;;;;;;;;;5020201;28;20040;-79
2021/08/13 11:55:34;;;;;;;9.43;2.78;;;;;;;;;;5032667;28;20025;-79
2021/08/13 11:58:03;;;;;;;6.32;2.63;;;;;;;;;;5036685;28;20424;-78
2021/08/13 12:00:31;;;;;;;6.50;2.65;;;;;;;;;;5032233;28;20022;-79
2021/08/13 12:03:04;;;;;;;7.90;2.72;;;;;;;;;;5032196;28;20037;-78
2021/08/13 12:05:32;;;;;;;10.80;3.05;;;;;;;;;;5035460;28;20026;-79
2021/08/13 12:08:00;;;;;;;7.63;2.33;;;;;;;;;;5034524;28;20025;-78
2021/08/13 12:10:26;;;;;;;6.95;2.08;;;;;;;;;;5026212;28;20069;-79
2021/08/13 12:12:52;;;;;;;6.43;1.90;;;;;;;;;;5037841;28;20079;-79
2021/08/13 12:15:34;;;;;;;5.88;1.77;;;;;;;;;;5033894;28;20021;-79
2021/08/13 12:18:01;;;;;;;5.53;1.80;;;;;;;;;;5028458;28;20036;-78
2021/08/13 12:20:28;;;;;;;6.53;2.25;;;;;;;;;;5034256;28;20030;-78
2021/08/13 12:22:58;;;;;;;6.88;1.90;;;;;;;;;;5013687;28;20088;-78
2021/08/13 12:25:31;;;;;;;7.15;2.20;;;;;;;;;;5033151;28;20021;-78
2021/08/13 12:27:56;;;;;;;6.30;1.60;;;;;;;;;;5021356;28;20041;-78
2021/08/13 12:30:22;;;;;;;4.50;1.60;;;;;;;;;;5018010;28;20527;-78
2021/08/13 12:32:48;;;;;;;8.68;1.90;;;;;;;;;;5028836;28;20431;-78
2021/08/13 12:35:14;;;;;;;7.53;1.90;;;;;;;;;;5022929;28;20040;-79
2021/08/13 12:37:41;;;;;;;7.50;1.55;;;;;;;;;;5028323;28;20388;-78
2021/08/13 12:40:10;;;;;;;7.50;1.88;;;;;;;;;;5030275;28;20074;-78
2021/08/13 12:42:36;;;;;;;7.13;2.00;;;;;;;;;;5025780;28;20498;-78
2021/08/13 12:45:07;;;;;;;8.55;1.98;;;;;;;;;;5026714;28;20029;-78
2021/08/13 12:47:33;;;;;;;6.25;1.80;;;;;;;;;;5031460;28;20163;-78
2021/08/13 12:49:59;;;;;;;6.07;1.80;;;;;;;;;;5027828;28;20061;-78
2021/08/13 12:52:24;;;;;;;8.82;1.90;;;;;;;;;;5030522;28;20835;-78
2021/08/13 12:54:53;;;;;;;6.07;1.80;;;;;;;;;;5028237;28;20211;-78
2021/08/13 12:57:19;;;;;;;7.53;1.73;;;;;;;;;;5028835;28;20022;-78
2021/08/13 13:00:05;;;;;;;6.85;1.65;;;;;;;;;;5024941;28;20033;-78
2021/08/13 13:02:30;;;;;;;7.25;1.63;;;;;;;;;;5045038;28;20448;-78
2021/08/13 13:05:02;;;;;;;4.93;1.65;;;;;;;;;;5028652;28;20037;-78
2021/08/13 13:07:40;;;;;;;9.55;1.90;;;;;;;;;;5030840;28;20025;-77
2021/08/13 13:10:17;;;;;;;7.30;1.65;;;;;;;;;;5031198;28;20079;-78
2021/08/13 13:12:43;;;;;;;8.50;1.75;;;;;;;;;;5026967;28;20076;-78
2021/08/13 13:15:27;;;;;;;6.60;1.63;;;;;;;;;;5025670;28;20033;-78
2021/08/13 13:17:58;;;;;;;8.30;1.70;;;;;;;;;;5029166;28;20481;-78
2021/08/13 13:20:32;;;;;;;11.82;2.22;;;;;;;;;;5012913;28;20026;-78
2021/08/13 13:23:11;;;;;;;5.80;1.52;;;;;;;;;;5030524;28;20120;-78
2021/08/13 13:25:47;;;;;;;5.32;1.77;;;;;;;;;;5035686;28;20466;-78
2021/08/13 13:28:25;;;;;;;5.35;1.52;;;;;;;;;;5033197;28;20033;-79
2021/08/13 13:30:51;;;;;;;4.57;1.88;;;;;;;;;;5033639;28;20100;-78
2021/08/13 13:33:24;;;;;;;8.63;2.08;;;;;;;;;;5032701;28;20061;-79
2021/08/13 13:36:10;;;;;;;6.65;1.70;;;;;;;;;;5033775;28;20036;-78
2021/08/13 13:38:37;;;;;;;5.90;1.60;;;;;;;;;;5027336;28;20032;-78
2021/08/13 13:41:04;;;;;;;4.78;1.65;;;;;;;;;;5032972;28;20044;-78
2021/08/13 13:43:31;;;;;;;5.68;1.67;;;;;;;;;;5035222;28;20383;-78
2021/08/13 13:45:57;;;;;;;7.25;1.65;;;;;;;;;;5032576;28;20040;-78
2021/08/13 13:48:24;;;;;;;9.05;2.10;;;;;;;;;;5015227;28;20030;-78
2021/08/13 13:50:50;;;;;;;5.45;1.90;;;;;;;;;;5013437;28;20030;-78
2021/08/13 13:53:16;;;;;;;9.38;2.00;;;;;;;;;;5050760;28;20033;-78
2021/08/13 13:55:42;;;;;;;5.93;1.70;;;;;;;;;;5019200;28;20041;-78
2021/08/13 13:58:07;;;;;;;7.95;2.00;;;;;;;;;;5030044;28;20033;-78
2021/08/13 14:00:33;;;;;;;8.43;2.10;;;;;;;;;;5016329;28;20472;-78
2021/08/13 14:02:59;;;;;;;8.68;1.98;;;;;;;;;;5015236;28;20049;-78
2021/08/13 14:05:24;;;;;;;12.02;1.80;;;;;;;;;;5025601;28;20076;-78
2021/08/13 14:07:52;;;;;;;6.43;1.95;;;;;;;;;;5030084;28;20064;-78
2021/08/13 14:10:28;;;;;;;6.55;1.90;;;;;;;;;;5030049;28;20028;-78
2021/08/13 14:12:59;;;;;;;10.52;2.47;;;;;;;;;;5031945;28;20123;-78
2021/08/13 14:15:25;;;;;;;8.73;1.85;;;;;;;;;;5032870;28;20086;-79
2021/08/13 14:17:51;;;;;;;10.45;2.20;;;;;;;;;;5031860;28;20053;-78
2021/08/13 14:20:18;;;;;;;7.85;2.08;;;;;;;;;;5010664;28;20121;-78
2021/08/13 14:22:43;;;;;;;8.70;1.90;;;;;;;;;;5036445;28;20085;-78
2021/08/13 14:25:12;;;;;;;6.53;1.75;;;;;;;;;;5033199;28;20048;-79
2021/08/13 14:27:37;;;;;;;9.80;2.15;;;;;;;;;;5035032;28;20393;-78
2021/08/13 14:30:05;;;;;;;9.27;2.30;;;;;;;;;;5026877;28;20018;-78
2021/08/13 14:32:30;;;;;;;7.70;2.20;;;;;;;;;;5032526;28;20028;-79
2021/08/13 14:34:55;;;;;;;10.15;2.22;;;;;;;;;;5027673;28;20026;-78